ADDS METAR Data INFO
IDs: Format: Raw Decoded Include TAF

Data at: 1010 UTC 14 Dec 2017

KCVH 140955Z AUTO 00000KT 10SM CLR 02/M04 A3008 RMK A01
KCVH 140935Z AUTO 00000KT 10SM CLR 02/M03 A3008 RMK A01
KCVH 140915Z AUTO 00000KT 10SM CLR 01/M04 A3008 RMK A01
KCVH 140855Z AUTO 00000KT 10SM CLR 05/M01 A3008 RMK A01
KCVH 140835Z AUTO 00000KT 10SM CLR 06/M01 A3008 RMK A01
KCVH 140815Z AUTO 00000KT 10SM CLR 02/M03 A3008 RMK A01
KCVH 140755Z AUTO 00000KT 10SM CLR 03/M02 A3008 RMK A01
KCVH 140735Z AUTO 00000KT 10SM CLR 04/M02 A3009 RMK A01
KCVH 140715Z AUTO 00000KT 10SM CLR 05/M02 A3009 RMK A01
KCVH 140655Z AUTO 00000KT 10SM CLR 03/M03 A3009 RMK A01
KCVH 140635Z AUTO 00000KT 10SM CLR 04/M02 A3009 RMK A01
KCVH 140615Z AUTO 00000KT 10SM CLR 06/M00 A3008 RMK A01
KCVH 140555Z AUTO 00000KT 10SM CLR 06/M00 A3008 RMK A01
KCVH 140535Z AUTO 00000KT 10SM CLR 07/00 A3008 RMK A01
KCVH 140515Z AUTO 00000KT 10SM CLR 06/M01 A3009 RMK A01
KCVH 140455Z AUTO 00000KT 10SM CLR 07/M01 A3008 RMK A01
KCVH 140435Z AUTO 00000KT 10SM CLR 07/M01 A3008 RMK A01
KCVH 140415Z AUTO 00000KT 10SM CLR 07/M01 A3008 RMK A01
KCVH 140355Z AUTO 00000KT 10SM CLR 09/M01 A3008 RMK A01
KCVH 140335Z AUTO 00000KT 10SM CLR 10/00 A3007 RMK A01
KCVH 140315Z AUTO 08005KT 10SM CLR 10/01 A3008 RMK A01
KCVH 140255Z AUTO 06006KT 10SM CLR 10/M01 A3007 RMK A01
KCVH 140235Z AUTO 05006KT 10SM CLR 10/M01 A3007 RMK A01
KCVH 140215Z AUTO 05006KT 10SM CLR 10/M01 A3006 RMK A01
KCVH 140155Z AUTO 04007KT 10SM CLR 11/01 A3006 RMK A01
KCVH 140135Z AUTO 00000KT 10SM CLR 11/01 A3005 RMK A01
KCVH 140115Z AUTO 34006KT 10SM CLR 12/01 A3007 RMK A01
KCVH 140055Z AUTO 33010KT 10SM CLR 13/01 A3006 RMK A01
KCVH 140035Z AUTO 33006KT 10SM CLR 14/00 A3006 RMK A01
KCVH 140015Z AUTO 33007KT 10SM CLR 15/00 A3006 RMK A01
KCVH 132355Z AUTO 32009KT 10SM CLR 16/00 A3005 RMK A01
KCVH 132335Z AUTO 32008G13KT 10SM CLR 18/00 A3005 RMK A01
KCVH 132315Z AUTO 32011KT 10SM CLR 20/M00 A3005 RMK A01
KCVH 132255Z AUTO 32015KT 10SM CLR 19/00 A3005 RMK A01
KCVH 132235Z AUTO 32013KT 10SM CLR 19/M01 A3005 RMK A01
KCVH 132215Z AUTO 31011KT 10SM CLR 20/M01 A3005 RMK A01
KCVH 132155Z AUTO 31010KT 10SM CLR 20/M01 A3005 RMK A01
KCVH 132135Z AUTO 29006KT 10SM CLR 20/M01 A3005 RMK A01
KCVH 132115Z AUTO 30005KT 10SM CLR 19/M01 A3006 RMK A01
KCVH 132055Z AUTO 30004KT 10SM FEW110 19/M01 A3008 RMK A01
KCVH 132035Z AUTO 31004KT 10SM CLR 18/M01 A3009 RMK A01
KCVH 132015Z AUTO 30004KT 10SM CLR 17/00 A3010 RMK A01
KCVH 131955Z AUTO 00000KT 10SM CLR 15/00 A3011 RMK A01
KCVH 131935Z AUTO 34005KT 10SM CLR 14/M00 A3012 RMK A01
KCVH 131915Z AUTO 33006KT 10SM CLR 14/M00 A3014 RMK A01
KCVH 131855Z AUTO 00000KT 10SM CLR 13/M01 A3015 RMK A01
KCVH 131835Z AUTO 27005KT 10SM CLR 11/M01 A3016 RMK A01
KCVH 131815Z AUTO 30005KT 10SM CLR 08/M01 A3017 RMK A01
KCVH 131755Z AUTO 33005KT 10SM CLR 08/M01 A3017 RMK A01
KCVH 131735Z AUTO 00000KT 10SM CLR 07/M02 A3017 RMK A01
KCVH 131715Z AUTO 00000KT 10SM CLR 06/M02 A3017 RMK A01
KCVH 131655Z AUTO 12004KT 10SM CLR 04/M03 A3018 RMK A01
KCVH 131635Z AUTO 13005KT 10SM CLR 03/M04 A3018 RMK A01
KCVH 131615Z AUTO 15005KT 10SM CLR 01/M05 A3020 RMK A01
KCVH 131555Z AUTO 17004KT 10SM CLR M01/M05 A3020 RMK A01
KCVH 131535Z AUTO 00000KT 10SM CLR M02/M06 A3020 RMK A01
KCVH 131515Z AUTO 00000KT 10SM CLR M02/M06 A3018 RMK A01
KCVH 131455Z AUTO 00000KT 10SM CLR M03/M07 A3018 RMK A01
KCVH 131435Z AUTO 00000KT 10SM CLR M02/M07 A3018 RMK A01
KCVH 131415Z AUTO 00000KT 10SM CLR M01/M07 A3018 RMK A01
KCVH 131355Z AUTO 00000KT 10SM CLR M01/M07 A3018 RMK A01
KCVH 131335Z AUTO 15005KT 10SM CLR M02/M07 A3018 RMK A01
KCVH 131315Z AUTO 17005KT 10SM CLR M02/M06 A3018 RMK A01
KCVH 131255Z AUTO 00000KT 10SM CLR M03/M07 A3019 RMK A01
KCVH 131235Z AUTO 00000KT 10SM CLR M03/M07 A3018 RMK A01
KCVH 131215Z AUTO 00000KT 10SM CLR M01/M06 A3018 RMK A01
KCVH 131155Z AUTO 12003KT 10SM CLR M00/M05 A3018 RMK A01
KCVH 131135Z AUTO 00000KT 10SM CLR 01/M04 A3018 RMK A01
KCVH 131115Z AUTO 00000KT 10SM CLR M02/M06 A3018 RMK A01
KCVH 131055Z AUTO 00000KT 10SM CLR 00/M05 A3019 RMK A01
KCVH 131035Z AUTO 00000KT 10SM CLR 00/M05 A3019 RMK A01
KCVH 131015Z AUTO 00000KT 10SM CLR M01/M06 A3020 RMK A01
KCVH 130955Z AUTO 00000KT 10SM CLR 00/M05 A3020 RMK A01
KCVH 130935Z AUTO 00000KT 10SM CLR 01/M05 A3020 RMK A01
KCVH 130915Z AUTO 00000KT 10SM CLR 01/M05 A3020 RMK A01
KCVH 130855Z AUTO 00000KT 10SM CLR 01/M04 A3020 RMK A01
KCVH 130835Z AUTO 00000KT 10SM CLR 01/M05 A3020 RMK A01
KCVH 130815Z AUTO 00000KT 10SM CLR 02/M03 A3020 RMK A01
KCVH 130755Z AUTO 00000KT 10SM CLR 02/M03 A3020 RMK A01
KCVH 130735Z AUTO 11004KT 10SM CLR 02/M03 A3020 RMK A01
KCVH 130715Z AUTO 06006KT 10SM CLR 05/M02 A3020 RMK A01
KCVH 130655Z AUTO 08005KT 10SM CLR 05/M02 A3020 RMK A01
KCVH 130635Z AUTO 06003KT 10SM CLR 05/M01 A3020 RMK A01
KCVH 130615Z AUTO 08004KT 10SM CLR 06/M01 A3019 RMK A01
KCVH 130555Z AUTO 06007KT 10SM CLR 06/M01 A3019 RMK A01
KCVH 130535Z AUTO 08006KT 10SM CLR 06/M00 A3019 RMK A01
KCVH 130515Z AUTO 06007KT 10SM CLR 06/M01 A3019 RMK A01
KCVH 130455Z AUTO 05007KT 10SM CLR 07/M01 A3019 RMK A01
KCVH 130435Z AUTO 06008KT 10SM CLR 08/00 A3019 RMK A01
KCVH 130415Z AUTO 08005KT 10SM CLR 08/00 A3019 RMK A01
KCVH 130355Z AUTO 00000KT 10SM CLR 08/M01 A3019 RMK A01
KCVH 130335Z AUTO 00000KT 10SM CLR 09/M01 A3019 RMK A01
KCVH 130315Z AUTO 09004KT 10SM CLR 09/M01 A3019 RMK A01
KCVH 130255Z AUTO 07006KT 10SM CLR 10/M01 A3020 RMK A01
KCVH 130235Z AUTO 07005KT 10SM CLR 09/M02 A3020 RMK A01
KCVH 130215Z AUTO 07006KT 10SM CLR 11/M01 A3019 RMK A01
KCVH 130155Z AUTO 05008KT 10SM CLR 11/M01 A3019 RMK A01
KCVH 130135Z AUTO 36004KT 10SM CLR 12/00 A3019 RMK A01
KCVH 130115Z AUTO 35009KT 10SM CLR 14/00 A3019 RMK A01
KCVH 130055Z AUTO 34010KT 10SM CLR 13/00 A3018 RMK A01
KCVH 130035Z AUTO 33010KT 10SM CLR 16/01 A3018 RMK A01
KCVH 130015Z AUTO 32009KT 10SM CLR 18/00 A3018 RMK A01
KCVH 122355Z AUTO 31011KT 10SM CLR 19/00 A3018 RMK A01
KCVH 122335Z AUTO 31011KT 10SM CLR 19/00 A3018 RMK A01
KCVH 122315Z AUTO 32015KT 10SM CLR 20/M00 A3018 RMK A01
KCVH 122255Z AUTO 32015KT 10SM CLR 20/M00 A3018 RMK A01
KCVH 122235Z AUTO 32016KT 10SM CLR 20/M01 A3018 RMK A01
KCVH 122215Z AUTO 31012KT 10SM CLR 22/M01 A3019 RMK A01